sensor_id;sensor_type;location;lat;lon;timestamp;pressure;altitude;pressure_sealevel;temperature;humidity
38225;BME280;24025;48.138;11.428;2023-06-14T00:00:29;95074.28;;;15.54;43.79
38225;BME280;24025;48.138;11.428;2023-06-14T00:03:02;95078.94;;;15.50;43.60
38225;BME280;24025;48.138;11.428;2023-06-14T00:05:36;95078.59;;;15.48;44.32
38225;BME280;24025;48.138;11.428;2023-06-14T00:08:12;95077.47;;;15.45;44.38
38225;BME280;24025;48.138;11.428;2023-06-14T00:10:43;95074.50;;;15.36;44.30
38225;BME280;24025;48.138;11.428;2023-06-14T00:13:14;95077.16;;;15.40;44.50
38225;BME280;24025;48.138;11.428;2023-06-14T00:15:46;95070.38;;;15.32;44.94
38225;BME280;24025;48.138;11.428;2023-06-14T00:18:18;95076.09;;;15.34;44.21
38225;BME280;24025;48.138;11.428;2023-06-14T00:20:50;95072.28;;;15.31;44.66
38225;BME280;24025;48.138;11.428;2023-06-14T00:23:23;95072.69;;;15.29;44.63
38225;BME280;24025;48.138;11.428;2023-06-14T00:25:54;95072.38;;;15.24;44.83
38225;BME280;24025;48.138;11.428;2023-06-14T00:28:26;95072.81;;;15.19;45.24
38225;BME280;24025;48.138;11.428;2023-06-14T00:30:57;95072.47;;;15.17;45.27
38225;BME280;24025;48.138;11.428;2023-06-14T00:33:29;95071.34;;;15.14;45.07
38225;BME280;24025;48.138;11.428;2023-06-14T00:36:00;95067.16;;;15.10;45.89
38225;BME280;24025;48.138;11.428;2023-06-14T00:38:31;95076.03;;;15.07;45.43
38225;BME280;24025;48.138;11.428;2023-06-14T00:41:03;95066.88;;;15.04;45.20
38225;BME280;24025;48.138;11.428;2023-06-14T00:43:34;95074.59;;;14.98;45.81
38225;BME280;24025;48.138;11.428;2023-06-14T00:46:06;95074.25;;;14.93;46.00
38225;BME280;24025;48.138;11.428;2023-06-14T00:48:38;95065.16;;;14.87;46.25
38225;BME280;24025;48.138;11.428;2023-06-14T00:51:09;95069.78;;;14.83;46.16
38225;BME280;24025;48.138;11.428;2023-06-14T00:53:41;95068.72;;;14.77;46.37
38225;BME280;24025;48.138;11.428;2023-06-14T00:56:17;95067.19;;;14.76;46.29
38225;BME280;24025;48.138;11.428;2023-06-14T00:58:52;95066.06;;;14.73;46.56
38225;BME280;24025;48.138;11.428;2023-06-14T01:01:24;95063.06;;;14.67;46.93
38225;BME280;24025;48.138;11.428;2023-06-14T01:03:55;95073.41;;;14.65;47.20
38225;BME280;24025;48.138;11.428;2023-06-14T01:06:38;95075.78;;;14.60;47.19
38225;BME280;24025;48.138;11.428;2023-06-14T01:09:23;95073.53;;;14.55;47.72
38225;BME280;24025;48.138;11.428;2023-06-14T01:14:29;95073.97;;;14.50;47.74
38225;BME280;24025;48.138;11.428;2023-06-14T01:17:02;95069.00;;;14.44;47.82
38225;BME280;24025;48.138;11.428;2023-06-14T01:19:34;95070.19;;;14.40;48.02
38225;BME280;24025;48.138;11.428;2023-06-14T01:22:06;95067.59;;;14.33;48.45
38225;BME280;24025;48.138;11.428;2023-06-14T01:24:37;95069.13;;;14.30;48.60
38225;BME280;24025;48.138;11.428;2023-06-14T01:27:10;95074.88;;;14.29;48.40
38225;BME280;24025;48.138;11.428;2023-06-14T01:29:42;95071.50;;;14.25;48.64
38225;BME280;24025;48.138;11.428;2023-06-14T01:32:17;95070.75;;;14.21;48.78
38225;BME280;24025;48.138;11.428;2023-06-14T01:34:50;95067.28;;;14.20;48.84
38225;BME280;24025;48.138;11.428;2023-06-14T01:37:21;95062.75;;;14.17;48.99
38225;BME280;24025;48.138;11.428;2023-06-14T01:39:53;95059.72;;;14.11;49.29
38225;BME280;24025;48.138;11.428;2023-06-14T01:42:25;95059.75;;;14.08;49.27
38225;BME280;24025;48.138;11.428;2023-06-14T01:44:56;95062.44;;;14.04;49.34
38225;BME280;24025;48.138;11.428;2023-06-14T01:47:29;95059.44;;;13.99;49.58
38225;BME280;24025;48.138;11.428;2023-06-14T01:50:02;95054.47;;;13.97;49.93
38225;BME280;24025;48.138;11.428;2023-06-14T01:52:33;95051.81;;;13.94;49.57
38225;BME280;24025;48.138;11.428;2023-06-14T01:55:05;95053.72;;;13.93;49.79
38225;BME280;24025;48.138;11.428;2023-06-14T01:57:37;95056.41;;;13.93;49.78
38225;BME280;24025;48.138;11.428;2023-06-14T02:00:08;95060.66;;;13.91;49.94
38225;BME280;24025;48.138;11.428;2023-06-14T02:02:44;95053.03;;;13.85;50.17
38225;BME280;24025;48.138;11.428;2023-06-14T02:05:17;95051.53;;;13.81;50.16
38225;BME280;24025;48.138;11.428;2023-06-14T02:07:50;95057.31;;;13.76;50.29
38225;BME280;24025;48.138;11.428;2023-06-14T02:10:21;95058.47;;;13.75;50.42
38225;BME280;24025;48.138;11.428;2023-06-14T02:12:53;95059.63;;;13.74;50.55
38225;BME280;24025;48.138;11.428;2023-06-14T02:15:24;95060.41;;;13.71;50.72
38225;BME280;24025;48.138;11.428;2023-06-14T02:18:04;95058.13;;;13.66;50.75
38225;BME280;24025;48.138;11.428;2023-06-14T02:20:36;95057.41;;;13.62;50.55
38225;BME280;24025;48.138;11.428;2023-06-14T02:23:07;95057.78;;;13.60;50.83
38225;BME280;24025;48.138;11.428;2023-06-14T02:25:39;95055.09;;;13.60;50.29
38225;BME280;24025;48.138;11.428;2023-06-14T02:28:11;95052.84;;;13.55;50.94
38225;BME280;24025;48.138;11.428;2023-06-14T02:30:43;95053.25;;;13.53;50.51
38225;BME280;24025;48.138;11.428;2023-06-14T02:33:14;95058.25;;;13.48;50.92
38225;BME280;24025;48.138;11.428;2023-06-14T02:35:46;95056.75;;;13.43;50.89
38225;BME280;24025;48.138;11.428;2023-06-14T02:38:18;95056.41;;;13.38;50.87
38225;BME280;24025;48.138;11.428;2023-06-14T02:40:50;95056.03;;;13.36;51.08
38225;BME280;24025;48.138;11.428;2023-06-14T02:43:21;95054.56;;;13.27;51.39
38225;BME280;24025;48.138;11.428;2023-06-14T02:45:52;95059.53;;;13.25;51.49
38225;BME280;24025;48.138;11.428;2023-06-14T02:48:24;95060.31;;;13.26;51.48
38225;BME280;24025;48.138;11.428;2023-06-14T02:50:57;95052.63;;;13.24;51.61
38225;BME280;24025;48.138;11.428;2023-06-14T02:53:28;95056.09;;;13.21;51.85
38225;BME280;24025;48.138;11.428;2023-06-14T02:55:59;95053.06;;;13.19;51.86
38225;BME280;24025;48.138;11.428;2023-06-14T02:58:32;95061.81;;;13.16;51.74
38225;BME280;24025;48.138;11.428;2023-06-14T03:01:04;95056.09;;;13.14;51.49
38225;BME280;24025;48.138;11.428;2023-06-14T03:03:36;95058.03;;;13.10;51.95
38225;BME280;24025;48.138;11.428;2023-06-14T03:06:08;95050.41;;;13.09;51.90
38225;BME280;24025;48.138;11.428;2023-06-14T03:08:40;95052.31;;;13.08;51.65
38225;BME280;24025;48.138;11.428;2023-06-14T03:11:12;95056.53;;;13.02;51.80
38225;BME280;24025;48.138;11.428;2023-06-14T03:13:44;95059.22;;;12.98;52.35
38225;BME280;24025;48.138;11.428;2023-06-14T03:16:16;95061.16;;;12.94;52.50
38225;BME280;24025;48.138;11.428;2023-06-14T03:18:51;95058.50;;;12.91;52.77
38225;BME280;24025;48.138;11.428;2023-06-14T03:21:23;95066.16;;;12.85;53.03
38225;BME280;24025;48.138;11.428;2023-06-14T03:23:54;95068.47;;;12.80;53.05
38225;BME280;24025;48.138;11.428;2023-06-14T03:26:25;95079.56;;;12.78;53.19
38225;BME280;24025;48.138;11.428;2023-06-14T03:28:57;95084.53;;;12.76;53.53
38225;BME280;24025;48.138;11.428;2023-06-14T03:31:29;95081.09;;;12.75;53.71
38225;BME280;24025;48.138;11.428;2023-06-14T03:34:04;95083.78;;;12.72;53.93
38225;BME280;24025;48.138;11.428;2023-06-14T03:36:35;95084.56;;;12.69;53.89
38225;BME280;24025;48.138;11.428;2023-06-14T03:39:07;95083.81;;;12.65;53.92
38225;BME280;24025;48.138;11.428;2023-06-14T03:41:38;95076.53;;;12.62;54.55
38225;BME280;24025;48.138;11.428;2023-06-14T03:44:10;95085.31;;;12.62;54.40
38225;BME280;24025;48.138;11.428;2023-06-14T03:46:41;95087.25;;;12.62;54.56
38225;BME280;24025;48.138;11.428;2023-06-14T03:49:13;95086.09;;;12.63;54.56
38225;BME280;24025;48.138;11.428;2023-06-14T03:51:44;95097.59;;;12.63;54.48
38225;BME280;24025;48.138;11.428;2023-06-14T03:54:16;95098.31;;;12.67;54.37
38225;BME280;24025;48.138;11.428;2023-06-14T03:57:08;95094.50;;;12.68;54.48
38225;BME280;24025;48.138;11.428;2023-06-14T03:59:39;95097.94;;;12.69;54.57
38225;BME280;24025;48.138;11.428;2023-06-14T04:02:12;95099.84;;;12.68;54.74
38225;BME280;24025;48.138;11.428;2023-06-14T04:04:47;95097.53;;;12.70;54.96
38225;BME280;24025;48.138;11.428;2023-06-14T04:07:19;95103.66;;;12.74;55.10
38225;BME280;24025;48.138;11.428;2023-06-14T04:09:51;95106.31;;;12.78;54.88
38225;BME280;24025;48.138;11.428;2023-06-14T04:12:22;95112.03;;;12.80;55.13
38225;BME280;24025;48.138;11.428;2023-06-14T04:14:54;95113.56;;;12.85;54.96
38225;BME280;24025;48.138;11.428;2023-06-14T04:17:32;95120.81;;;12.91;54.55
38225;BME280;24025;48.138;11.428;2023-06-14T04:20:04;95116.97;;;12.96;54.50
38225;BME280;24025;48.138;11.428;2023-06-14T04:22:36;95121.53;;;13.02;54.28
38225;BME280;24025;48.138;11.428;2023-06-14T04:25:08;95121.53;;;13.10;54.22
38225;BME280;24025;48.138;11.428;2023-06-14T04:27:39;95129.91;;;13.15;54.07
38225;BME280;24025;48.138;11.428;2023-06-14T04:30:12;95129.53;;;13.20;54.60
38225;BME280;24025;48.138;11.428;2023-06-14T04:32:44;95131.44;;;13.23;54.65
38225;BME280;24025;48.138;11.428;2023-06-14T04:35:17;95128.75;;;13.30;53.97
38225;BME280;24025;48.138;11.428;2023-06-14T04:37:49;95137.53;;;13.35;53.94
38225;BME280;24025;48.138;11.428;2023-06-14T04:40:20;95132.53;;;13.40;54.07
38225;BME280;24025;48.138;11.428;2023-06-14T04:42:52;95137.47;;;13.45;53.69
38225;BME280;24025;48.138;11.428;2023-06-14T04:45:24;95133.63;;;13.53;54.02
38225;BME280;24025;48.138;11.428;2023-06-14T04:47:55;95136.28;;;13.60;53.62
38225;BME280;24025;48.138;11.428;2023-06-14T04:50:28;95140.81;;;13.67;53.20
38225;BME280;24025;48.138;11.428;2023-06-14T04:53:00;95146.88;;;13.78;53.63
38225;BME280;24025;48.138;11.428;2023-06-14T04:55:32;95146.06;;;13.85;53.39
38225;BME280;24025;48.138;11.428;2023-06-14T04:58:04;95140.66;;;13.92;53.33
38225;BME280;24025;48.138;11.428;2023-06-14T05:00:36;95137.53;;;14.01;53.23
38225;BME280;24025;48.138;11.428;2023-06-14T05:03:08;95135.59;;;14.08;52.68
38225;BME280;24025;48.138;11.428;2023-06-14T05:05:40;95140.53;;;14.13;51.99
38225;BME280;24025;48.138;11.428;2023-06-14T05:08:12;95138.53;;;14.21;52.09
38225;BME280;24025;48.138;11.428;2023-06-14T05:10:43;95148.47;;;14.28;52.31
38225;BME280;24025;48.138;11.428;2023-06-14T05:13:15;95145.72;;;14.35;52.16
38225;BME280;24025;48.138;11.428;2023-06-14T05:15:46;95147.22;;;14.39;51.43
38225;BME280;24025;48.138;11.428;2023-06-14T05:18:18;95147.19;;;14.47;51.62
38225;BME280;24025;48.138;11.428;2023-06-14T05:20:50;95154.03;;;14.55;51.70
38225;BME280;24025;48.138;11.428;2023-06-14T05:23:21;95147.84;;;14.61;50.68
38225;BME280;24025;48.138;11.428;2023-06-14T05:25:52;95147.38;;;14.70;50.99
38225;BME280;24025;48.138;11.428;2023-06-14T05:28:24;95153.44;;;14.78;50.81
38225;BME280;24025;48.138;11.428;2023-06-14T05:30:56;95152.97;;;14.86;50.10
38225;BME280;24025;48.138;11.428;2023-06-14T05:33:27;95156.38;;;14.94;50.06
38225;BME280;24025;48.138;11.428;2023-06-14T05:35:59;95162.44;;;14.98;49.99
38225;BME280;24025;48.138;11.428;2023-06-14T05:38:31;95156.25;;;15.05;49.66
38225;BME280;24025;48.138;11.428;2023-06-14T05:41:02;95165.41;;;15.11;49.27
38225;BME280;24025;48.138;11.428;2023-06-14T05:43:33;95163.75;;;15.20;49.09
38225;BME280;24025;48.138;11.428;2023-06-14T05:46:05;95149.88;;;15.25;48.33
38225;BME280;24025;48.138;11.428;2023-06-14T05:48:36;95162.81;;;15.34;48.31
38225;BME280;24025;48.138;11.428;2023-06-14T05:51:08;95165.91;;;15.33;48.09
38225;BME280;24025;48.138;11.428;2023-06-14T05:53:40;95163.09;;;15.43;47.82
38225;BME280;24025;48.138;11.428;2023-06-14T05:56:11;95159.28;;;15.41;47.75
38225;BME280;24025;48.138;11.428;2023-06-14T05:58:43;95154.91;;;15.54;47.50
38225;BME280;24025;48.138;11.428;2023-06-14T06:01:14;95158.25;;;15.65;47.10
38225;BME280;24025;48.138;11.428;2023-06-14T06:03:46;95159.38;;;15.68;47.07
38225;BME280;24025;48.138;11.428;2023-06-14T06:06:19;95156.13;;;15.80;46.85
38225;BME280;24025;48.138;11.428;2023-06-14T06:08:50;95164.88;;;15.88;46.64
38225;BME280;24025;48.138;11.428;2023-06-14T06:11:22;95175.88;;;15.97;46.92
38225;BME280;24025;48.138;11.428;2023-06-14T06:13:53;95174.34;;;15.99;46.81
38225;BME280;24025;48.138;11.428;2023-06-14T06:16:25;95171.91;;;16.08;46.51
38225;BME280;24025;48.138;11.428;2023-06-14T06:18:56;95177.56;;;16.14;45.78
38225;BME280;24025;48.138;11.428;2023-06-14T06:21:28;95175.94;;;16.20;45.81
38225;BME280;24025;48.138;11.428;2023-06-14T06:23:59;95177.38;;;16.28;46.16
38225;BME280;24025;48.138;11.428;2023-06-14T06:26:33;95180.34;;;16.34;45.15
38225;BME280;24025;48.138;11.428;2023-06-14T06:29:05;95177.66;;;16.34;44.73
38225;BME280;24025;48.138;11.428;2023-06-14T06:31:37;95184.84;;;16.44;45.16
38225;BME280;24025;48.138;11.428;2023-06-14T06:34:08;95189.50;;;16.40;44.86
38225;BME280;24025;48.138;11.428;2023-06-14T06:36:40;95189.44;;;16.43;44.77
38225;BME280;24025;48.138;11.428;2023-06-14T06:39:11;95185.06;;;16.53;44.96
38225;BME280;24025;48.138;11.428;2023-06-14T06:41:42;95184.53;;;16.62;44.53
38225;BME280;24025;48.138;11.428;2023-06-14T06:44:14;95178.69;;;16.67;44.18
38225;BME280;24025;48.138;11.428;2023-06-14T06:46:45;95184.31;;;16.76;44.44
38225;BME280;24025;48.138;11.428;2023-06-14T06:49:17;95195.06;;;16.80;44.06
38225;BME280;24025;48.138;11.428;2023-06-14T06:51:59;95183.47;;;16.83;43.87
38225;BME280;24025;48.138;11.428;2023-06-14T06:54:31;95197.56;;;16.90;43.77
38225;BME280;24025;48.138;11.428;2023-06-14T06:57:02;95194.00;;;16.97;43.79
38225;BME280;24025;48.138;11.428;2023-06-14T06:59:35;95188.19;;;16.98;43.32
38225;BME280;24025;48.138;11.428;2023-06-14T07:02:07;95194.69;;;17.01;43.45
38225;BME280;24025;48.138;11.428;2023-06-14T07:04:38;95193.72;;;17.11;44.10
38225;BME280;24025;48.138;11.428;2023-06-14T07:07:10;95189.41;;;17.17;42.84
38225;BME280;24025;48.138;11.428;2023-06-14T07:09:41;95188.44;;;17.27;43.09
38225;BME280;24025;48.138;11.428;2023-06-14T07:12:13;95200.19;;;17.37;42.90
38225;BME280;24025;48.138;11.428;2023-06-14T07:14:45;95195.56;;;17.38;42.14
38225;BME280;24025;48.138;11.428;2023-06-14T07:17:16;95194.25;;;17.46;42.65
38225;BME280;24025;48.138;11.428;2023-06-14T07:19:48;95198.31;;;17.54;42.00
38225;BME280;24025;48.138;11.428;2023-06-14T07:22:19;95202.97;;;17.53;41.14
38225;BME280;24025;48.138;11.428;2023-06-14T07:24:51;95205.09;;;17.62;41.82
38225;BME280;24025;48.138;11.428;2023-06-14T07:27:23;95202.63;;;17.71;40.95
38225;BME280;24025;48.138;11.428;2023-06-14T07:29:54;95207.06;;;17.81;40.86
38225;BME280;24025;48.138;11.428;2023-06-14T07:32:25;95204.56;;;17.91;40.92
38225;BME280;24025;48.138;11.428;2023-06-14T07:34:57;95211.75;;;17.97;41.02
38225;BME280;24025;48.138;11.428;2023-06-14T07:37:28;95207.31;;;18.07;40.73
38225;BME280;24025;48.138;11.428;2023-06-14T07:40:00;95209.09;;;18.14;40.52
38225;BME280;24025;48.138;11.428;2023-06-14T07:42:32;95217.84;;;18.18;40.18
38225;BME280;24025;48.138;11.428;2023-06-14T07:45:04;95206.00;;;18.31;40.22
38225;BME280;24025;48.138;11.428;2023-06-14T07:47:35;95213.84;;;18.42;39.69
38225;BME280;24025;48.138;11.428;2023-06-14T07:50:07;95211.41;;;18.48;37.42
38225;BME280;24025;48.138;11.428;2023-06-14T07:52:39;95212.78;;;18.56;38.40
38225;BME280;24025;48.138;11.428;2023-06-14T07:55:10;95220.69;;;18.63;37.92
38225;BME280;24025;48.138;11.428;2023-06-14T07:57:42;95213.22;;;18.71;36.61
38225;BME280;24025;48.138;11.428;2023-06-14T08:00:15;95216.19;;;18.76;36.21
38225;BME280;24025;48.138;11.428;2023-06-14T08:02:47;95206.47;;;18.79;36.79
38225;BME280;24025;48.138;11.428;2023-06-14T08:05:18;95210.84;;;18.89;37.89
38225;BME280;24025;48.138;11.428;2023-06-14T08:07:50;95210.16;;;19.01;38.15
38225;BME280;24025;48.138;11.428;2023-06-14T08:10:22;95210.06;;;19.05;37.11
38225;BME280;24025;48.138;11.428;2023-06-14T08:12:53;95210.50;;;19.03;36.90
38225;BME280;24025;48.138;11.428;2023-06-14T08:15:25;95213.34;;;19.12;35.68
38225;BME280;24025;48.138;11.428;2023-06-14T08:17:57;95210.47;;;19.19;35.75
38225;BME280;24025;48.138;11.428;2023-06-14T08:20:30;95212.66;;;19.24;35.91
38225;BME280;24025;48.138;11.428;2023-06-14T08:23:03;95211.53;;;19.38;35.17
38225;BME280;24025;48.138;11.428;2023-06-14T08:25:35;95216.75;;;19.45;33.83
38225;BME280;24025;48.138;11.428;2023-06-14T08:28:07;95223.91;;;19.52;33.80
38225;BME280;24025;48.138;11.428;2023-06-14T08:30:38;95225.94;;;19.64;35.08
38225;BME280;24025;48.138;11.428;2023-06-14T08:33:09;95214.16;;;19.71;34.29
38225;BME280;24025;48.138;11.428;2023-06-14T08:35:47;95218.72;;;19.74;33.85
38225;BME280;24025;48.138;11.428;2023-06-14T08:38:19;95228.59;;;19.80;33.78
38225;BME280;24025;48.138;11.428;2023-06-14T08:40:51;95229.34;;;19.81;33.58
38225;BME280;24025;48.138;11.428;2023-06-14T08:43:23;95236.97;;;19.99;33.19
38225;BME280;24025;48.138;11.428;2023-06-14T08:45:58;95236.41;;;20.04;32.21
38225;BME280;24025;48.138;11.428;2023-06-14T08:48:30;95232.63;;;20.14;32.09
38225;BME280;24025;48.138;11.428;2023-06-14T08:51:04;95229.63;;;20.25;32.85
38225;BME280;24025;48.138;11.428;2023-06-14T08:53:36;95231.59;;;20.37;33.51
38225;BME280;24025;48.138;11.428;2023-06-14T08:56:13;95228.91;;;20.50;32.80
38225;BME280;24025;48.138;11.428;2023-06-14T08:58:44;95228.34;;;20.55;32.00
38225;BME280;24025;48.138;11.428;2023-06-14T09:01:19;95222.06;;;20.71;32.11
38225;BME280;24025;48.138;11.428;2023-06-14T09:03:53;95226.06;;;20.79;32.20
38225;BME280;24025;48.138;11.428;2023-06-14T09:06:26;95223.91;;;20.86;31.59
38225;BME280;24025;48.138;11.428;2023-06-14T09:08:59;95226.78;;;21.05;31.85
38225;BME280;24025;48.138;11.428;2023-06-14T09:11:30;95229.28;;;21.12;31.11
38225;BME280;24025;48.138;11.428;2023-06-14T09:14:02;95230.22;;;21.18;31.31
38225;BME280;24025;48.138;11.428;2023-06-14T09:16:33;95224.25;;;21.10;30.97
38225;BME280;24025;48.138;11.428;2023-06-14T09:19:05;95229.56;;;21.27;30.88
38225;BME280;24025;48.138;11.428;2023-06-14T09:21:36;95235.38;;;21.38;30.81
38225;BME280;24025;48.138;11.428;2023-06-14T09:24:12;95230.47;;;21.45;30.40
38225;BME280;24025;48.138;11.428;2023-06-14T09:26:46;95236.31;;;21.57;30.46
38225;BME280;24025;48.138;11.428;2023-06-14T09:29:21;95230.59;;;21.64;30.98
38225;BME280;24025;48.138;11.428;2023-06-14T09:31:52;95236.44;;;21.75;29.81
38225;BME280;24025;48.138;11.428;2023-06-14T09:34:23;95239.28;;;21.93;29.43
38225;BME280;24025;48.138;11.428;2023-06-14T09:36:55;95236.13;;;21.95;29.71
38225;BME280;24025;48.138;11.428;2023-06-14T09:39:26;95239.78;;;22.01;29.62
38225;BME280;24025;48.138;11.428;2023-06-14T09:41:58;95231.56;;;22.14;28.91
38225;BME280;24025;48.138;11.428;2023-06-14T09:44:29;95241.91;;;22.28;29.66
38225;BME280;24025;48.138;11.428;2023-06-14T09:47:02;95247.56;;;22.43;29.26
38225;BME280;24025;48.138;11.428;2023-06-14T09:49:33;95245.38;;;22.59;29.72
38225;BME280;24025;48.138;11.428;2023-06-14T09:52:05;95247.44;;;22.86;30.07
38225;BME280;24025;48.138;11.428;2023-06-14T09:54:40;95238.56;;;22.95;28.83
38225;BME280;24025;48.138;11.428;2023-06-14T09:57:14;95237.53;;;23.20;28.24
38225;BME280;24025;48.138;11.428;2023-06-14T09:59:46;95243.00;;;23.48;29.42
38225;BME280;24025;48.138;11.428;2023-06-14T10:02:22;95232.13;;;23.66;28.00
38225;BME280;24025;48.138;11.428;2023-06-14T10:04:57;95234.41;;;23.86;28.61
38225;BME280;24025;48.138;11.428;2023-06-14T10:07:34;95226.34;;;24.00;28.52
38225;BME280;24025;48.138;11.428;2023-06-14T10:10:06;95245.28;;;23.95;28.61
38225;BME280;24025;48.138;11.428;2023-06-14T10:12:38;95225.13;;;24.11;27.14
38225;BME280;24025;48.138;11.428;2023-06-14T10:15:10;95235.09;;;24.23;27.42
38225;BME280;24025;48.138;11.428;2023-06-14T10:17:47;95231.34;;;24.02;25.83
38225;BME280;24025;48.138;11.428;2023-06-14T10:22:55;95234.06;;;24.63;26.29
38225;BME280;24025;48.138;11.428;2023-06-14T10:25:30;95234.38;;;24.55;26.29
38225;BME280;24025;48.138;11.428;2023-06-14T10:28:14;95226.09;;;24.50;26.84
38225;BME280;24025;48.138;11.428;2023-06-14T10:33:50;95225.88;;;24.96;28.06
38225;BME280;24025;48.138;11.428;2023-06-14T10:39:00;95224.97;;;24.90;26.90
38225;BME280;24025;48.138;11.428;2023-06-14T10:41:34;95220.22;;;24.75;26.45
38225;BME280;24025;48.138;11.428;2023-06-14T10:46:49;95215.00;;;24.86;27.85
38225;BME280;24025;48.138;11.428;2023-06-14T10:49:42;95225.31;;;25.16;26.43
38225;BME280;24025;48.138;11.428;2023-06-14T10:52:15;95223.44;;;25.46;26.49
38225;BME280;24025;48.138;11.428;2023-06-14T10:57:27;95222.13;;;25.94;26.27
38225;BME280;24025;48.138;11.428;2023-06-14T10:59:59;95225.91;;;26.12;26.09
38225;BME280;24025;48.138;11.428;2023-06-14T11:05:05;95220.16;;;26.24;25.29
38225;BME280;24025;48.138;11.428;2023-06-14T11:13:03;95217.22;;;26.13;23.97
38225;BME280;24025;48.138;11.428;2023-06-14T11:15:37;95218.91;;;25.96;24.77
38225;BME280;24025;48.138;11.428;2023-06-14T11:18:09;95223.06;;;25.77;24.77
38225;BME280;24025;48.138;11.428;2023-06-14T11:20:41;95219.13;;;25.92;25.54
38225;BME280;24025;48.138;11.428;2023-06-14T11:23:12;95224.13;;;25.55;25.25
38225;BME280;24025;48.138;11.428;2023-06-14T11:25:49;95227.56;;;25.41;25.61
38225;BME280;24025;48.138;11.428;2023-06-14T11:28:21;95234.78;;;25.29;25.82
38225;BME280;24025;48.138;11.428;2023-06-14T11:31:02;95229.50;;;25.26;25.55
38225;BME280;24025;48.138;11.428;2023-06-14T11:33:34;95223.53;;;25.51;25.47
38225;BME280;24025;48.138;11.428;2023-06-14T11:36:06;95224.56;;;25.78;24.81
38225;BME280;24025;48.138;11.428;2023-06-14T11:38:40;95215.44;;;26.10;24.84
38225;BME280;24025;48.138;11.428;2023-06-14T11:41:11;95218.28;;;26.16;24.43
38225;BME280;24025;48.138;11.428;2023-06-14T11:43:43;95211.47;;;25.96;24.48
38225;BME280;24025;48.138;11.428;2023-06-14T11:46:14;95213.13;;;25.64;24.94
38225;BME280;24025;48.138;11.428;2023-06-14T11:48:53;95213.09;;;25.50;25.54
38225;BME280;24025;48.138;11.428;2023-06-14T11:51:24;95199.75;;;25.66;25.15
38225;BME280;24025;48.138;11.428;2023-06-14T11:53:56;95206.13;;;25.49;24.38
38225;BME280;24025;48.138;11.428;2023-06-14T11:56:28;95202.84;;;25.59;24.67
38225;BME280;24025;48.138;11.428;2023-06-14T11:58:59;95208.94;;;26.08;24.75
38225;BME280;24025;48.138;11.428;2023-06-14T12:01:31;95204.41;;;26.05;23.69
38225;BME280;24025;48.138;11.428;2023-06-14T12:04:03;95214.69;;;25.95;24.09
38225;BME280;24025;48.138;11.428;2023-06-14T12:06:35;95210.19;;;25.68;24.49
38225;BME280;24025;48.138;11.428;2023-06-14T12:09:11;95214.69;;;24.61;24.70
38225;BME280;24025;48.138;11.428;2023-06-14T12:11:49;95219.13;;;24.82;25.15
38225;BME280;24025;48.138;11.428;2023-06-14T12:14:20;95211.38;;;25.13;24.00
38225;BME280;24025;48.138;11.428;2023-06-14T12:17:05;95203.81;;;24.84;24.23
38225;BME280;24025;48.138;11.428;2023-06-14T12:19:43;95204.78;;;24.96;24.18
38225;BME280;24025;48.138;11.428;2023-06-14T12:22:15;95207.22;;;25.27;25.37
38225;BME280;24025;48.138;11.428;2023-06-14T12:24:47;95204.78;;;25.83;24.38
38225;BME280;24025;48.138;11.428;2023-06-14T12:27:21;95204.59;;;25.86;24.08
38225;BME280;24025;48.138;11.428;2023-06-14T12:30:03;95204.22;;;26.38;23.72
38225;BME280;24025;48.138;11.428;2023-06-14T12:32:36;95198.94;;;26.34;22.93
38225;BME280;24025;48.138;11.428;2023-06-14T12:35:07;95197.63;;;26.00;23.45
38225;BME280;24025;48.138;11.428;2023-06-14T12:37:39;95191.50;;;24.65;25.22
38225;BME280;24025;48.138;11.428;2023-06-14T12:40:11;95195.56;;;25.18;24.25
38225;BME280;24025;48.138;11.428;2023-06-14T12:42:44;95201.88;;;25.00;24.39
38225;BME280;24025;48.138;11.428;2023-06-14T12:45:15;95205.59;;;25.21;24.52
38225;BME280;24025;48.138;11.428;2023-06-14T12:47:47;95197.97;;;25.63;25.01
38225;BME280;24025;48.138;11.428;2023-06-14T12:50:19;95200.75;;;26.08;23.87
38225;BME280;24025;48.138;11.428;2023-06-14T12:52:52;95204.38;;;26.64;23.78
38225;BME280;24025;48.138;11.428;2023-06-14T12:55:24;95193.78;;;27.06;23.69
38225;BME280;24025;48.138;11.428;2023-06-14T12:57:55;95207.09;;;26.99;22.83
38225;BME280;24025;48.138;11.428;2023-06-14T13:00:27;95220.31;;;27.00;23.00
38225;BME280;24025;48.138;11.428;2023-06-14T13:02:58;95209.94;;;26.69;22.88
38225;BME280;24025;48.138;11.428;2023-06-14T13:05:30;95208.19;;;25.92;22.83
38225;BME280;24025;48.138;11.428;2023-06-14T13:08:04;95213.16;;;26.23;23.25
38225;BME280;24025;48.138;11.428;2023-06-14T13:10:35;95214.94;;;26.71;23.51
38225;BME280;24025;48.138;11.428;2023-06-14T13:13:07;95215.00;;;27.12;23.23
38225;BME280;24025;48.138;11.428;2023-06-14T13:15:38;95211.38;;;27.41;22.15
38225;BME280;24025;48.138;11.428;2023-06-14T13:18:11;95215.69;;;27.27;22.33
38225;BME280;24025;48.138;11.428;2023-06-14T13:20:45;95213.16;;;27.44;22.55
38225;BME280;24025;48.138;11.428;2023-06-14T13:23:17;95210.88;;;27.62;21.96
38225;BME280;24025;48.138;11.428;2023-06-14T13:25:48;95213.97;;;27.50;21.40
38225;BME280;24025;48.138;11.428;2023-06-14T13:28:22;95201.72;;;27.25;22.13
38225;BME280;24025;48.138;11.428;2023-06-14T13:30:53;95209.31;;;26.60;22.64
38225;BME280;24025;48.138;11.428;2023-06-14T13:33:26;95213.19;;;26.88;23.58
38225;BME280;24025;48.138;11.428;2023-06-14T13:35:58;95209.97;;;26.90;22.86
38225;BME280;24025;48.138;11.428;2023-06-14T13:38:30;95200.97;;;27.04;22.78
38225;BME280;24025;48.138;11.428;2023-06-14T13:41:01;95203.97;;;27.26;21.86